Time;durP1;ratioP1;P1;durP2;ratioP2;P2;SDS_P1;SDS_P2;PMS_P1;PMS_P2;Temp;Humidity;BMP_temperature;BMP_pressure;BME280_temperature;BME280_humidity;BME280_pressure;Samples;Min_cycle;Max_cycle;Signal;HPM_P1;HPM_P2
2022/06/20 00:01:47;;;;;;;40.40;33.60;;;13.50;99.90;;;;;;5016605;28;20443;-75
2022/06/20 00:04:18;;;;;;;41.35;34.97;;;13.50;99.90;;;;;;5020854;28;20087;-75
2022/06/20 00:06:49;;;;;;;38.90;30.35;;;13.50;99.90;;;;;;5020390;28;20069;-75
2022/06/20 00:09:16;;;;;;;42.88;33.25;;;13.50;99.90;;;;;;5004469;28;20054;-75
2022/06/20 00:11:46;;;;;;;40.80;32.88;;;13.50;99.90;;;;;;5003805;28;20052;-75
2022/06/20 00:14:17;;;;;;;45.95;34.00;;;13.60;99.90;;;;;;5021570;28;20570;-75
2022/06/20 00:16:44;;;;;;;41.10;31.77;;;13.60;99.90;;;;;;5021220;28;20045;-75
2022/06/20 00:19:11;;;;;;;34.17;30.13;;;13.50;99.90;;;;;;5005037;28;20107;-75
2022/06/20 00:21:39;;;;;;;41.60;32.22;;;13.40;99.90;;;;;;5003397;28;20049;-75
2022/06/20 00:24:07;;;;;;;39.95;31.75;;;13.40;99.90;;;;;;5028211;28;20052;-75
2022/06/20 00:26:35;;;;;;;37.03;31.58;;;13.50;99.90;;;;;;5003659;28;20448;-75
2022/06/20 00:29:07;;;;;;;35.83;27.95;;;13.30;99.90;;;;;;5022662;28;20141;-74
2022/06/20 00:31:34;;;;;;;42.08;31.38;;;13.10;99.90;;;;;;5004641;28;20593;-74
2022/06/20 00:34:02;;;;;;;40.33;27.75;;;13.00;99.90;;;;;;5021258;28;20103;-74
2022/06/20 00:36:29;;;;;;;36.35;29.48;;;12.90;99.90;;;;;;5018781;22;20057;-73
2022/06/20 00:38:56;;;;;;;38.47;29.60;;;13.00;99.90;;;;;;4988195;28;20061;-75
2022/06/20 00:41:27;;;;;;;39.08;28.92;;;13.00;99.90;;;;;;5005319;28;20111;-75
2022/06/20 00:43:55;;;;;;;33.85;29.00;;;13.00;99.90;;;;;;5006382;28;20704;-74
2022/06/20 00:46:53;;;;;;;38.63;27.88;;;12.80;99.90;;;;;;5006900;28;20266;-73
2022/06/20 00:49:26;;;;;;;32.22;25.90;;;12.80;99.90;;;;;;4988538;28;20056;-74
2022/06/20 00:52:03;;;;;;;36.45;27.45;;;12.80;99.90;;;;;;5005358;28;20724;-74
2022/06/20 00:54:51;;;;;;;32.15;24.83;;;12.80;99.90;;;;;;5004255;28;20045;-74
2022/06/20 00:57:45;;;;;;;36.17;26.15;;;12.90;99.90;;;;;;5021945;28;20049;-74
2022/06/20 01:00:16;;;;;;;32.95;25.05;;;12.90;99.90;;;;;;5021342;28;20061;-74
2022/06/20 01:02:50;;;;;;;34.17;24.70;;;12.90;99.90;;;;;;5004844;28;20056;-74
2022/06/20 01:05:27;;;;;;;29.70;23.85;;;13.00;99.90;;;;;;5025888;28;20060;-74
2022/06/20 01:08:03;;;;;;;35.45;25.75;;;13.00;99.90;;;;;;5013951;28;20218;-75
2022/06/20 01:10:42;;;;;;;35.40;25.40;;;12.90;99.90;;;;;;5027780;28;20694;-75
2022/06/20 01:13:14;;;;;;;31.92;24.90;;;12.80;99.90;;;;;;5046385;28;20049;-72
2022/06/20 01:15:43;;;;;;;29.05;24.58;;;12.90;99.90;;;;;;5046107;28;20557;-73
2022/06/20 01:18:22;;;;;;;30.88;23.30;;;12.80;99.90;;;;;;5046308;28;20139;-73
2022/06/20 01:20:51;;;;;;;27.02;24.17;;;12.80;99.90;;;;;;5045395;28;20044;-74
2022/06/20 01:23:18;;;;;;;31.58;24.30;;;12.70;99.90;;;;;;5025959;28;20096;-74
2022/06/20 01:26:12;;;;;;;31.73;25.52;;;12.80;99.90;;;;;;5008155;28;20049;-75
2022/06/20 01:28:42;;;;;;;28.35;25.00;;;13.00;99.90;;;;;;5007691;28;20103;-75
2022/06/20 01:31:10;;;;;;;28.38;24.25;;;13.10;99.90;;;;;;5025036;28;20140;-73
2022/06/20 01:33:38;;;;;;;32.95;25.77;;;12.90;99.90;;;;;;5006444;28;20579;-73
2022/06/20 01:38:51;;;;;;;29.45;25.55;;;12.90;99.90;;;;;;5008247;28;20089;-73
2022/06/20 01:44:05;;;;;;;33.80;26.35;;;13.00;99.90;;;;;;5037679;28;20073;-73
2022/06/20 01:46:35;;;;;;;33.42;27.10;;;13.00;99.90;;;;;;5026447;28;20037;-74
2022/06/20 01:49:15;;;;;;;34.03;26.10;;;12.90;99.90;;;;;;5045545;28;20056;-73
2022/06/20 01:51:54;;;;;;;36.60;26.92;;;12.90;99.90;;;;;;5040575;28;20045;-73
2022/06/20 01:54:22;;;;;;;36.20;28.23;;;12.80;99.90;;;;;;5021550;28;20458;-73
2022/06/20 01:56:52;;;;;;;42.95;29.90;;;12.80;99.90;;;;;;5006663;28;20353;-74
2022/06/20 01:59:30;;;;;;;34.92;29.00;;;12.90;99.90;;;;;;5025876;28;20508;-72
2022/06/20 02:01:57;;;;;;;37.13;30.45;;;13.00;99.90;;;;;;5026912;28;20111;-73
2022/06/20 02:04:27;;;;;;;34.85;28.50;;;13.00;99.90;;;;;;5007564;28;20262;-74
2022/06/20 02:06:54;;;;;;;37.97;30.30;;;13.00;99.90;;;;;;5019598;28;20384;-74
2022/06/20 02:09:22;;;;;;;37.63;31.92;;;13.10;99.90;;;;;;5007101;28;20463;-74
2022/06/20 02:11:49;;;;;;;31.67;28.10;;;13.20;99.90;;;;;;5006171;28;20088;-74
2022/06/20 02:14:20;;;;;;;35.05;29.63;;;13.30;99.90;;;;;;5023707;28;20057;-74
2022/06/20 02:16:59;;;;;;;39.05;32.10;;;13.10;99.90;;;;;;5006979;28;20140;-73
2022/06/20 02:19:34;;;;;;;44.78;33.17;;;13.00;99.90;;;;;;4987489;28;20130;-73
2022/06/20 02:22:05;;;;;;;40.88;33.45;;;13.20;99.90;;;;;;5011068;28;20441;-72
2022/06/20 02:24:36;;;;;;;52.90;34.38;;;13.10;99.90;;;;;;5024108;28;20072;-73
2022/06/20 02:27:09;;;;;;;40.00;32.95;;;13.10;99.90;;;;;;5019712;28;20045;-71
2022/06/20 02:29:36;;;;;;;42.03;32.63;;;13.20;99.90;;;;;;5012094;28;20064;-72
2022/06/20 02:32:09;;;;;;;47.00;33.25;;;13.20;99.90;;;;;;5024276;28;20054;-74
2022/06/20 02:34:36;;;;;;;42.55;33.00;;;13.20;99.90;;;;;;5020440;28;20057;-73
2022/06/20 02:37:09;;;;;;;50.15;35.22;;;13.10;99.90;;;;;;5006147;28;20338;-72
2022/06/20 02:39:42;;;;;;;49.30;32.45;;;13.00;99.90;;;;;;5007752;28;20045;-73
2022/06/20 02:42:16;;;;;;;44.40;30.88;;;13.00;99.90;;;;;;5024156;28;20131;-72
2022/06/20 02:44:45;;;;;;;51.88;33.08;;;12.80;99.90;;;;;;5024646;28;20096;-73
2022/06/20 02:47:14;;;;;;;49.63;32.22;;;12.80;99.90;;;;;;5006844;28;20601;-72
2022/06/20 02:49:42;;;;;;;55.70;33.35;;;12.90;99.90;;;;;;5024083;28;20054;-73
2022/06/20 02:52:16;;;;;;;52.03;33.60;;;12.80;99.90;;;;;;5026679;28;20118;-73
2022/06/20 02:54:44;;;;;;;52.92;32.53;;;12.80;99.90;;;;;;5021362;28;20104;-73
2022/06/20 02:57:17;;;;;;;59.38;35.63;;;12.70;99.90;;;;;;5023458;28;20075;-73
2022/06/20 02:59:49;;;;;;;59.35;34.30;;;12.70;99.90;;;;;;5024860;28;20056;-73
2022/06/20 03:02:22;;;;;;;73.93;40.20;;;12.60;99.90;;;;;;5022371;28;20164;-72
2022/06/20 03:04:50;;;;;;;70.80;40.28;;;12.60;99.90;;;;;;5024338;28;20046;-72
2022/06/20 03:07:21;;;;;;;74.65;41.65;;;12.70;99.90;;;;;;5024112;28;20547;-73
2022/06/20 03:09:58;;;;;;;73.05;40.03;;;12.70;99.90;;;;;;5024920;28;20065;-73
2022/06/20 03:12:25;;;;;;;50.85;29.73;;;12.70;99.90;;;;;;5006466;28;20460;-72
2022/06/20 03:14:55;;;;;;;46.08;28.90;;;12.60;99.90;;;;;;5005648;28;20495;-72
2022/06/20 03:17:23;;;;;;;42.80;26.88;;;12.50;99.90;;;;;;5023794;28;20077;-73
2022/06/20 03:19:55;;;;;;;41.30;24.95;;;12.40;99.90;;;;;;5024533;28;20605;-73
2022/06/20 03:22:33;;;;;;;42.38;23.52;;;12.30;99.90;;;;;;5021748;28;20420;-73
2022/06/20 03:25:05;;;;;;;35.95;22.38;;;12.30;99.90;;;;;;5023385;28;20059;-72
2022/06/20 03:27:35;;;;;;;34.97;21.70;;;12.30;99.90;;;;;;4993256;28;20049;-73
2022/06/20 03:30:26;;;;;;;36.88;22.63;;;12.20;99.90;;;;;;5006662;28;20037;-72
2022/06/20 03:32:53;;;;;;;38.13;23.48;;;12.20;99.90;;;;;;5023262;28;20502;-73
2022/06/20 03:35:20;;;;;;;39.58;20.95;;;12.20;99.90;;;;;;5022594;28;20049;-72
2022/06/20 03:37:47;;;;;;;29.02;16.65;;;12.20;99.90;;;;;;5004670;28;20147;-75
2022/06/20 03:40:15;;;;;;;33.83;17.42;;;12.10;99.90;;;;;;5005692;28;20049;-73
2022/06/20 03:42:43;;;;;;;34.08;18.67;;;12.10;99.90;;;;;;5023693;28;20412;-73
2022/06/20 03:45:11;;;;;;;26.48;15.38;;;12.00;99.90;;;;;;5010984;28;20600;-73
2022/06/20 03:48:03;;;;;;;28.27;17.08;;;12.00;99.90;;;;;;5042154;28;20111;-74
2022/06/20 03:50:38;;;;;;;32.72;16.25;;;12.00;99.90;;;;;;5020460;28;20080;-73
2022/06/20 03:53:12;;;;;;;30.45;15.90;;;11.90;99.90;;;;;;5026755;28;20463;-74
2022/06/20 03:56:03;;;;;;;30.08;16.05;;;12.00;99.90;;;;;;5022593;28;20132;-73
2022/06/20 03:58:36;;;;;;;20.80;13.32;;;12.00;99.90;;;;;;5023493;28;20306;-73
2022/06/20 04:01:14;;;;;;;18.90;12.02;;;11.90;99.90;;;;;;5021779;28;20287;-73
2022/06/20 04:03:45;;;;;;;17.05;11.98;;;11.90;99.90;;;;;;5023354;28;20136;-73
2022/06/20 04:06:45;;;;;;;19.38;12.48;;;11.90;99.90;;;;;;5005271;28;20124;-73
2022/06/20 04:12:08;;;;;;;17.58;12.18;;;11.90;99.90;;;;;;5022456;28;20068;-74
2022/06/20 04:14:52;;;;;;;24.55;13.52;;;11.90;99.90;;;;;;5004187;28;20467;-73
2022/06/20 04:20:24;;;;;;;;;;;11.90;99.90;;;;;;5023838;28;20084;-73
2022/06/20 04:22:54;;;;;;;56.55;29.92;;;11.70;99.90;;;;;;5005211;28;19925;-73
2022/06/20 04:25:32;;;;;;;59.17;33.10;;;11.70;99.90;;;;;;5003988;28;20072;-74
2022/06/20 04:28:27;;;;;;;46.45;26.25;;;11.70;99.90;;;;;;5005677;28;20318;-74
2022/06/20 04:31:20;;;;;;;42.17;24.42;;;11.70;99.90;;;;;;5021252;28;20046;-73
2022/06/20 04:34:08;;;;;;;43.55;25.77;;;11.80;99.90;;;;;;5022550;28;20046;-74
2022/06/20 04:36:47;;;;;;;57.58;30.52;;;11.90;99.90;;;;;;5004384;28;20118;-72
2022/06/20 04:39:19;;;;;;;42.33;25.95;;;12.00;99.90;;;;;;5025202;28;20550;-73
2022/06/20 04:42:23;;;;;;;47.15;26.02;;;12.00;99.90;;;;;;5027066;28;20042;-74
2022/06/20 04:45:00;;;;;;;50.92;28.58;;;11.90;99.90;;;;;;5026397;28;20050;-74
2022/06/20 04:47:46;;;;;;;49.45;28.15;;;11.80;99.90;;;;;;5026826;28;20042;-74
2022/06/20 04:50:17;;;;;;;44.03;26.20;;;11.80;99.90;;;;;;5027060;28;20485;-73
2022/06/20 04:52:46;;;;;;;47.17;25.73;;;11.70;99.90;;;;;;5026406;28;20077;-74
2022/06/20 04:55:16;;;;;;;43.17;23.75;;;11.80;99.90;;;;;;5008431;28;20080;-74
2022/06/20 04:57:51;;;;;;;38.60;24.42;;;12.00;99.90;;;;;;5009653;28;20053;-73
2022/06/20 05:00:21;;;;;;;44.33;25.65;;;12.20;99.90;;;;;;5025576;28;20141;-74
2022/06/20 05:02:50;;;;;;;40.78;24.15;;;12.20;99.90;;;;;;5008030;28;20512;-74
2022/06/20 05:05:27;;;;;;;40.92;24.58;;;12.40;99.90;;;;;;5018684;28;20564;-74
2022/06/20 05:07:54;;;;;;;35.55;22.98;;;12.40;99.90;;;;;;5046843;28;20400;-73
2022/06/20 05:10:30;;;;;;;35.80;22.40;;;12.50;99.90;;;;;;5046905;28;20103;-74
2022/06/20 05:13:14;;;;;;;40.58;26.20;;;12.60;99.90;;;;;;5046901;28;20048;-74
2022/06/20 05:15:48;;;;;;;43.83;27.50;;;12.60;99.90;;;;;;5045308;28;20114;-74
2022/06/20 05:18:37;;;;;;;42.30;28.35;;;12.60;99.90;;;;;;5045912;28;20468;-74
2022/06/20 05:21:19;;;;;;;39.70;26.42;;;12.50;99.90;;;;;;5046188;28;20494;-75
2022/06/20 05:23:54;;;;;;;36.88;25.58;;;12.60;99.90;;;;;;5027346;28;20045;-74
2022/06/20 05:26:25;;;;;;;34.15;23.20;;;12.60;99.90;;;;;;5007863;28;20061;-74
2022/06/20 05:28:55;;;;;;;22.38;17.77;;;12.60;99.90;;;;;;5007225;28;20138;-75
2022/06/20 05:31:38;;;;;;;30.70;20.67;;;12.60;99.90;;;;;;5007946;28;20075;-75
2022/06/20 05:34:20;;;;;;;21.92;19.27;;;12.50;99.90;;;;;;5027474;28;20046;-73
2022/06/20 05:36:49;;;;;;;23.95;18.75;;;12.50;99.90;;;;;;4991240;28;20064;-73
2022/06/20 05:39:43;;;;;;;23.15;19.50;;;12.50;99.90;;;;;;5025957;28;20120;-74
2022/06/20 05:42:13;;;;;;;34.22;21.92;;;12.50;99.90;;;;;;4989552;28;20508;-74
2022/06/20 05:44:40;;;;;;;29.20;21.20;;;12.50;99.90;;;;;;5026074;28;20144;-74
2022/06/20 05:47:16;;;;;;;27.33;18.95;;;12.50;99.90;;;;;;5008514;28;20076;-76
2022/06/20 05:49:49;;;;;;;23.38;16.13;;;12.60;99.90;;;;;;5021594;28;20054;-74
2022/06/20 05:52:22;;;;;;;16.40;13.45;;;12.60;99.90;;;;;;5023567;28;20038;-74
2022/06/20 05:54:57;;;;;;;19.00;13.00;;;12.60;99.90;;;;;;5006128;28;20069;-76
2022/06/20 05:57:27;;;;;;;13.38;11.35;;;12.60;99.90;;;;;;5006894;28;20132;-73
2022/06/20 06:00:02;;;;;;;12.75;11.30;;;12.60;99.90;;;;;;5007231;28;20675;-74
2022/06/20 06:03:04;;;;;;;18.35;14.38;;;12.70;99.90;;;;;;5024022;28;20123;-73
2022/06/20 06:05:41;;;;;;;24.30;19.70;;;12.70;99.90;;;;;;5006286;28;20045;-74
2022/06/20 06:08:15;;;;;;;27.58;19.77;;;12.60;99.90;;;;;;5024977;28;20045;-74
2022/06/20 06:11:02;;;;;;;27.48;19.42;;;12.60;99.90;;;;;;5024037;28;20609;-74
2022/06/20 06:13:46;;;;;;;27.33;18.70;;;12.50;99.90;;;;;;5024737;28;20057;-73
2022/06/20 06:17:02;;;;;;;26.63;18.73;;;12.50;99.90;;;;;;5023479;28;20090;-74
2022/06/20 06:20:11;;;;;;;30.00;20.02;;;12.40;99.90;;;;;;5002675;28;20877;-72
2022/06/20 06:22:43;;;;;;;29.10;19.30;;;12.30;99.90;;;;;;4985664;28;20123;-73
2022/06/20 06:25:28;;;;;;;25.67;18.90;;;12.30;99.90;;;;;;5007322;28;20475;-74
2022/06/20 06:27:58;;;;;;;24.50;18.80;;;12.10;99.90;;;;;;5007128;28;20127;-74
2022/06/20 06:30:37;;;;;;;27.10;20.05;;;12.10;99.90;;;;;;5023867;28;20072;-73
2022/06/20 06:33:20;;;;;;;33.20;23.10;;;12.00;99.90;;;;;;5005961;28;20478;-73
2022/06/20 06:36:02;;;;;;;41.17;25.65;;;12.00;99.90;;;;;;5005542;22;21234;-73
2022/06/20 06:39:04;;;;;;;46.97;27.73;;;11.90;99.90;;;;;;5022906;28;20052;-74
2022/06/20 06:41:41;;;;;;;42.97;27.42;;;12.10;99.90;;;;;;5015841;28;20053;-73
2022/06/20 06:44:31;;;;;;;35.13;24.58;;;12.00;99.90;;;;;;5023109;28;20083;-73
2022/06/20 06:46:59;;;;;;;30.88;21.65;;;11.80;99.90;;;;;;5005184;28;20504;-73
2022/06/20 06:49:36;;;;;;;31.33;20.83;;;11.70;99.90;;;;;;5007624;28;20692;-75
2022/06/20 06:52:21;;;;;;;33.78;18.80;;;11.70;99.90;;;;;;5003039;28;20318;-73
2022/06/20 06:54:59;;;;;;;36.85;20.75;;;11.60;99.90;;;;;;5002159;28;20054;-73
2022/06/20 06:57:46;;;;;;;25.20;17.38;;;11.60;99.90;;;;;;5001433;28;20125;-75
2022/06/20 07:00:22;;;;;;;27.25;17.73;;;11.50;99.90;;;;;;4998830;28;20041;-73
2022/06/20 07:02:59;;;;;;;19.52;13.48;;;11.50;99.90;;;;;;5020845;28;20115;-74
2022/06/20 07:05:40;;;;;;;18.65;11.25;;;11.30;99.90;;;;;;5019953;28;20064;-74
2022/06/20 07:08:23;;;;;;;17.38;12.55;;;11.20;99.90;;;;;;5021503;28;20045;-73
2022/06/20 07:10:57;;;;;;;22.92;14.43;;;11.10;99.90;;;;;;5021848;28;20112;-74
2022/06/20 07:13:37;;;;;;;17.52;12.98;;;11.10;99.90;;;;;;5004699;28;20569;-74
2022/06/20 07:16:14;;;;;;;22.77;13.55;;;11.10;99.90;;;;;;5021027;28;20203;-74
2022/06/20 07:18:46;;;;;;;20.83;13.60;;;11.20;99.90;;;;;;5002478;28;20471;-73
2022/06/20 07:21:17;;;;;;;28.40;15.13;;;11.20;99.90;;;;;;5002157;28;20107;-74
2022/06/20 07:23:49;;;;;;;26.92;16.30;;;11.30;99.90;;;;;;5017004;28;20292;-73
2022/06/20 07:26:21;;;;;;;27.73;16.65;;;11.30;99.90;;;;;;5015185;28;20356;-73
2022/06/20 07:29:02;;;;;;;21.90;15.43;;;11.30;99.90;;;;;;5020093;28;20111;-74
2022/06/20 07:31:39;;;;;;;23.23;13.63;;;11.30;99.90;;;;;;5005747;28;20057;-73
2022/06/20 07:34:41;;;;;;;28.90;14.32;;;11.30;99.90;;;;;;5002035;28;20829;-73
2022/06/20 07:37:13;;;;;;;26.90;16.65;;;11.30;99.90;;;;;;4961925;28;20117;-73
2022/06/20 07:40:04;;;;;;;27.60;16.08;;;11.50;99.90;;;;;;5007803;28;20473;-73
2022/06/20 07:42:43;;;;;;;35.63;18.02;;;11.70;99.90;;;;;;5019398;28;20049;-73
2022/06/20 07:45:31;;;;;;;32.22;18.63;;;11.80;99.90;;;;;;5009383;28;20053;-73
2022/06/20 07:48:02;;;;;;;24.65;14.73;;;12.00;99.90;;;;;;5003795;28;20132;-73
2022/06/20 07:50:39;;;;;;;20.55;14.07;;;12.00;99.90;;;;;;5001223;28;20092;-74
2022/06/20 07:53:18;;;;;;;20.10;13.98;;;12.00;99.90;;;;;;5018218;28;20053;-73
2022/06/20 07:55:51;;;;;;;20.13;13.00;;;11.90;99.90;;;;;;4996120;28;20077;-73
2022/06/20 07:58:23;;;;;;;24.38;13.57;;;12.00;99.90;;;;;;5020188;28;20048;-73
2022/06/20 08:00:52;;;;;;;19.70;12.70;;;12.10;99.90;;;;;;5020098;28;20103;-73
2022/06/20 08:03:36;;;;;;;20.83;15.63;;;12.00;99.90;;;;;;5021043;28;20045;-73
2022/06/20 08:06:24;;;;;;;24.30;15.27;;;12.00;99.90;;;;;;5021432;28;20055;-73
2022/06/20 08:09:11;;;;;;;21.42;15.25;;;12.10;99.90;;;;;;5022751;28;20045;-73
2022/06/20 08:12:04;;;;;;;22.45;16.40;;;12.10;99.90;;;;;;5021880;28;20092;-73
2022/06/20 08:14:42;;;;;;;24.98;14.85;;;12.00;99.90;;;;;;5027408;28;20122;-73
2022/06/20 08:17:11;;;;;;;26.25;14.18;;;12.00;99.90;;;;;;5044750;28;20060;-73
2022/06/20 08:19:43;;;;;;;30.02;16.02;;;12.00;99.90;;;;;;5021139;28;20071;-73
2022/06/20 08:22:24;;;;;;;22.75;14.50;;;12.00;99.90;;;;;;5022808;28;20069;-73
2022/06/20 08:25:10;;;;;;;24.60;14.30;;;12.00;99.90;;;;;;5015088;28;20139;-73
2022/06/20 08:27:41;;;;;;;21.17;13.45;;;12.00;99.90;;;;;;5018656;28;21124;-73
2022/06/20 08:30:15;;;;;;;22.02;11.70;;;12.10;99.90;;;;;;5020983;28;20457;-74
2022/06/20 08:33:03;;;;;;;24.13;13.95;;;12.20;99.90;;;;;;5016184;28;20732;-73
2022/06/20 08:35:33;;;;;;;17.50;9.70;;;12.10;99.90;;;;;;5019391;28;20112;-73
2022/06/20 08:38:14;;;;;;;15.48;7.70;;;12.20;99.90;;;;;;5021406;28;20564;-74
2022/06/20 08:41:38;;;;;;;15.98;8.13;;;12.10;99.90;;;;;;5015115;28;20556;-73
2022/06/20 08:44:47;;;;;;;16.80;8.55;;;12.00;99.90;;;;;;4960061;28;20051;-73
2022/06/20 08:47:19;;;;;;;16.08;8.90;;;11.80;99.90;;;;;;4949527;28;20559;-73
2022/06/20 08:50:25;;;;;;;13.43;9.07;;;11.80;99.90;;;;;;5005935;28;20068;-73
2022/06/20 08:53:32;;;;;;;19.77;10.05;;;12.00;99.90;;;;;;5022198;28;20437;-73
2022/06/20 08:56:21;;;;;;;15.50;9.48;;;12.00;99.90;;;;;;5023937;28;20100;-73
2022/06/20 08:59:38;;;;;;;20.33;10.70;;;12.10;99.90;;;;;;5021675;28;20045;-73
2022/06/20 09:02:22;;;;;;;19.92;11.82;;;12.20;99.90;;;;;;4983563;28;20164;-73
2022/06/20 09:04:56;;;;;;;22.70;10.45;;;12.40;99.90;;;;;;5017254;28;20053;-73
2022/06/20 09:07:42;;;;;;;21.70;11.60;;;12.70;99.90;;;;;;5024030;28;20046;-73
2022/06/20 09:10:29;;;;;;;21.27;12.65;;;12.60;99.90;;;;;;5020488;28;20053;-73
2022/06/20 09:13:29;;;;;;;25.70;12.95;;;12.60;99.90;;;;;;5015803;28;20060;-73
2022/06/20 09:16:22;;;;;;;20.90;13.48;;;12.60;99.90;;;;;;5038507;28;20475;-73
2022/06/20 09:19:16;;;;;;;26.52;14.15;;;13.00;99.90;;;;;;5017194;28;20428;-73
2022/06/20 09:22:16;;;;;;;19.00;14.85;;;13.10;99.90;;;;;;5014722;28;20045;-73
2022/06/20 09:25:03;;;;;;;24.60;15.88;;;13.00;99.90;;;;;;5020645;28;20432;-74
2022/06/20 09:27:56;;;;;;;20.40;14.70;;;13.00;99.90;;;;;;5019836;28;20049;-73
2022/06/20 09:30:37;;;;;;;25.52;14.45;;;13.20;99.90;;;;;;5022393;28;20129;-74
2022/06/20 09:33:10;;;;;;;17.88;13.80;;;13.30;99.90;;;;;;5007449;28;20081;-74
2022/06/20 09:36:12;;;;;;;19.08;13.77;;;13.30;99.90;;;;;;5003121;28;20081;-73
2022/06/20 09:38:46;;;;;;;22.38;14.45;;;13.50;99.90;;;;;;4988902;28;20480;-74
2022/06/20 09:41:28;;;;;;;19.77;14.38;;;13.70;99.90;;;;;;5022467;28;20099;-74
2022/06/20 09:44:28;;;;;;;19.65;14.05;;;13.70;99.90;;;;;;5004403;28;20512;-74
2022/06/20 09:47:08;;;;;;;17.75;14.90;;;13.90;99.90;;;;;;5003859;28;20085;-74
2022/06/20 09:50:00;;;;;;;21.13;14.45;;;14.10;99.90;;;;;;5006167;28;20574;-74
2022/06/20 09:53:04;;;;;;;19.13;15.38;;;14.20;99.90;;;;;;5009922;28;20057;-74
2022/06/20 09:55:56;;;;;;;22.98;17.13;;;14.30;99.90;;;;;;5020679;28;20412;-74
2022/06/20 09:58:55;;;;;;;20.10;18.33;;;14.20;99.90;;;;;;5021051;28;20466;-74
2022/06/20 10:01:48;;;;;;;24.30;19.20;;;14.10;99.90;;;;;;5016511;28;20061;-74
2022/06/20 10:04:37;;;;;;;21.13;19.17;;;14.00;99.90;;;;;;5020305;28;20067;-74
2022/06/20 10:07:42;;;;;;;25.25;21.48;;;14.00;99.90;;;;;;5021324;28;20045;-74
2022/06/20 10:10:30;;;;;;;22.98;20.42;;;14.00;99.90;;;;;;5020615;28;20053;-74
2022/06/20 10:13:06;;;;;;;23.25;20.60;;;13.90;99.90;;;;;;5002869;28;20128;-73
2022/06/20 10:16:08;;;;;;;26.52;22.88;;;13.80;99.90;;;;;;5010950;28;20049;-72
2022/06/20 10:18:46;;;;;;;27.67;21.58;;;13.90;99.90;;;;;;5004546;28;20522;-74
2022/06/20 10:21:13;;;;;;;25.65;22.95;;;13.90;99.90;;;;;;5015736;28;20342;-73
2022/06/20 10:24:06;;;;;;;27.10;21.75;;;13.90;99.90;;;;;;5004397;28;20057;-74
2022/06/20 10:26:49;;;;;;;28.05;22.50;;;14.10;99.90;;;;;;4992634;28;20054;-74
2022/06/20 10:29:48;;;;;;;27.77;24.10;;;14.00;99.90;;;;;;5018732;28;20088;-73
2022/06/20 10:32:23;;;;;;;28.85;22.00;;;14.00;99.90;;;;;;5020434;28;20099;-74
2022/06/20 10:34:59;;;;;;;24.88;22.52;;;14.00;99.90;;;;;;5019820;28;21233;-74
2022/06/20 10:37:33;;;;;;;24.58;21.88;;;13.80;99.90;;;;;;5022091;28;20049;-74
2022/06/20 10:40:38;;;;;;;25.75;22.17;;;13.90;99.90;;;;;;5021707;28;20056;-73
2022/06/20 10:43:41;;;;;;;21.33;19.23;;;13.90;99.90;;;;;;5020900;28;20053;-73
2022/06/20 10:46:21;;;;;;;28.05;22.67;;;14.20;99.90;;;;;;5020184;28;20038;-74
2022/06/20 10:49:22;;;;;;;28.13;21.02;;;14.30;99.90;;;;;;5022769;28;20099;-73
2022/06/20 10:52:04;;;;;;;24.35;22.08;;;14.80;99.90;;;;;;5008086;28;20045;-74
2022/06/20 10:54:49;;;;;;;26.95;23.92;;;15.40;99.90;;;;;;5021243;28;20064;-74
2022/06/20 10:57:53;;;;;;;27.63;25.00;;;15.50;99.90;;;;;;5010299;28;20373;-74
2022/06/20 11:00:22;;;;;;;26.80;24.52;;;15.60;99.90;;;;;;4984320;28;20627;-73
2022/06/20 11:03:26;;;;;;;29.17;26.65;;;15.80;99.90;;;;;;5021196;28;20183;-74
2022/06/20 11:06:21;;;;;;;28.95;26.25;;;15.70;99.90;;;;;;5022376;28;20045;-75
2022/06/20 11:09:28;;;;;;;28.42;24.88;;;15.40;99.90;;;;;;5021901;28;20061;-73
2022/06/20 11:12:14;;;;;;;26.77;24.25;;;15.40;99.90;;;;;;5019599;28;20092;-74
2022/06/20 11:14:57;;;;;;;27.10;24.50;;;15.60;99.90;;;;;;5014870;28;20107;-73
2022/06/20 11:18:04;;;;;;;27.35;24.58;;;15.60;99.90;;;;;;5022141;28;20068;-74
2022/06/20 11:20:36;;;;;;;30.88;28.02;;;15.90;99.90;;;;;;4995195;28;20049;-75
2022/06/20 11:23:48;;;;;;;30.05;27.65;;;16.10;99.90;;;;;;5013444;28;20140;-74
2022/06/20 11:26:24;;;;;;;31.60;28.77;;;16.40;99.90;;;;;;4931664;28;20533;-73
2022/06/20 11:29:13;;;;;;;28.20;25.77;;;16.20;99.90;;;;;;5012998;28;20134;-74
2022/06/20 11:32:21;;;;;;;29.48;27.17;;;16.20;99.90;;;;;;5007454;28;20050;-75
2022/06/20 11:35:15;;;;;;;30.35;27.88;;;16.30;99.90;;;;;;5001673;28;20046;-73
2022/06/20 11:38:04;;;;;;;31.27;28.52;;;16.30;99.90;;;;;;5001306;28;20080;-73
2022/06/20 11:40:30;;;;;;;31.38;28.88;;;16.30;99.90;;;;;;5017082;28;20119;-73
2022/06/20 11:43:15;;;;;;;30.92;28.02;;;16.20;99.90;;;;;;5000068;28;20135;-73
2022/06/20 11:46:10;;;;;;;30.20;27.50;;;16.70;99.90;;;;;;5000823;28;20536;-72
2022/06/20 11:49:16;;;;;;;30.98;28.23;;;17.20;99.90;;;;;;5004249;28;21108;-74
2022/06/20 11:51:52;;;;;;;31.23;28.80;;;17.80;99.90;;;;;;5004151;28;20065;-71
2022/06/20 11:54:36;;;;;;;26.48;24.25;;;18.40;99.90;;;;;;5017278;28;20140;-72
2022/06/20 11:57:28;;;;;;;30.67;28.52;;;19.10;99.90;;;;;;5018455;28;20068;-74
2022/06/20 12:00:12;;;;;;;26.80;25.00;;;18.90;99.90;;;;;;5012346;28;20560;-73
2022/06/20 12:02:49;;;;;;;26.15;24.50;;;18.80;99.90;;;;;;5000283;28;20432;-72
2022/06/20 12:05:25;;;;;;;23.25;21.48;;;19.10;99.90;;;;;;5001159;28;20152;-73
2022/06/20 12:08:19;;;;;;;23.30;21.80;;;19.10;99.90;;;;;;5000499;28;20104;-73
2022/06/20 12:10:57;;;;;;;24.40;22.38;;;18.90;99.90;;;;;;5001147;28;20049;-73
2022/06/20 12:13:27;;;;;;;26.17;24.30;;;18.70;99.90;;;;;;5000141;28;20058;-73
2022/06/20 12:16:05;;;;;;;24.45;22.85;;;18.40;99.90;;;;;;5005724;28;20058;-73
2022/06/20 12:24:34;;;;;;;24.27;22.08;;;19.50;99.90;;;;;;5014240;28;20042;-73
2022/06/20 12:27:10;;;;;;;23.90;22.05;;;19.90;99.90;;;;;;5019722;28;20068;-72
2022/06/20 12:29:37;;;;;;;23.55;21.95;;;19.70;99.90;;;;;;5018130;28;20069;-72
2022/06/20 12:32:13;;;;;;;22.70;21.15;;;19.20;99.90;;;;;;5002268;28;20073;-73
2022/06/20 12:34:52;;;;;;;24.58;22.92;;;19.30;99.90;;;;;;5019354;28;20045;-72
2022/06/20 12:37:50;;;;;;;23.27;21.48;;;19.50;99.90;;;;;;5038093;22;20069;-71
2022/06/20 12:40:34;;;;;;;24.23;22.63;;;19.40;99.90;;;;;;5036483;28;20072;-70
2022/06/20 12:43:15;;;;;;;26.15;23.88;;;19.50;99.90;;;;;;5024045;28;20206;-70
2022/06/20 12:46:00;;;;;;;24.00;22.50;;;19.60;99.90;;;;;;5041646;28;20064;-71
2022/06/20 12:48:55;;;;;;;24.20;22.50;;;19.80;99.90;;;;;;5042334;28;20218;-70
2022/06/20 12:51:37;;;;;;;25.10;23.08;;;20.30;99.90;;;;;;4984549;28;20653;-71
2022/06/20 12:54:31;;;;;;;24.88;23.08;;;20.50;99.90;;;;;;5021447;28;20492;-72
2022/06/20 12:57:29;;;;;;;23.95;21.90;;;20.70;99.90;;;;;;5021690;28;20103;-71
2022/06/20 13:00:15;;;;;;;26.13;24.38;;;20.80;99.90;;;;;;5013460;28;20096;-71
2022/06/20 13:03:12;;;;;;;25.65;23.80;;;20.70;99.90;;;;;;5039432;28;20079;-71
2022/06/20 13:06:19;;;;;;;26.60;24.60;;;20.90;99.90;;;;;;5004569;28;20530;-70
2022/06/20 13:09:14;;;;;;;25.45;23.35;;;20.90;99.90;;;;;;5022903;28;20102;-71
2022/06/20 13:11:50;;;;;;;24.85;22.98;;;20.70;99.90;;;;;;5043727;28;20514;-71
2022/06/20 13:14:22;;;;;;;24.15;22.45;;;20.30;99.90;;;;;;5021693;28;20179;-72
2022/06/20 13:16:57;;;;;;;23.58;21.83;;;20.20;99.90;;;;;;5024284;28;20038;-70
2022/06/20 13:19:39;;;;;;;;;;;20.30;99.90;;;;;;5039464;28;20099;-70
2022/06/20 13:22:33;;;;;;;27.10;25.42;;;20.20;99.90;;;;;;5034569;28;19975;-69
2022/06/20 13:25:43;;;;;;;25.58;23.50;;;20.40;99.90;;;;;;5005293;28;20080;-70
2022/06/20 13:28:18;;;;;;;24.40;22.60;;;21.10;99.90;;;;;;4990333;28;20053;-70
2022/06/20 13:31:04;;;;;;;25.38;23.45;;;20.80;99.90;;;;;;5024158;28;20523;-70
2022/06/20 13:33:49;;;;;;;;;;;20.40;99.90;;;;;;5020432;28;20490;-71
2022/06/20 13:36:43;;;;;;;23.98;22.23;;;20.30;99.90;;;;;;5043620;28;19971;-73
2022/06/20 13:39:25;;;;;;;23.73;22.08;;;20.30;99.90;;;;;;5022278;28;20579;-70
2022/06/20 13:42:15;;;;;;;26.25;24.38;;;20.10;99.90;;;;;;5006452;28;20046;-71
2022/06/20 13:44:56;;;;;;;25.45;23.88;;;20.40;99.90;;;;;;5011683;28;20087;-72
2022/06/20 13:47:34;;;;;;;25.60;23.90;;;20.50;99.90;;;;;;5005936;28;20107;-72
2022/06/20 13:50:34;;;;;;;25.55;23.85;;;20.80;99.90;;;;;;5024143;28;20081;-71
2022/06/20 13:53:36;;;;;;;25.70;23.95;;;20.70;99.90;;;;;;5025507;28;20095;-72